createdAt,value
2023-02-25T00:01:34.502Z,95.01
2023-02-25T00:04:01.061Z,95.13
2023-02-25T00:06:27.958Z,95.25
2023-02-25T00:08:55.534Z,94.95
2023-02-25T00:11:24.199Z,94.82
2023-02-25T00:13:52.128Z,94.33
2023-02-25T00:16:20.323Z,94.26
2023-02-25T00:18:47.137Z,94.13
2023-02-25T00:21:16.456Z,93.61
2023-02-25T00:23:45.271Z,92.94
2023-02-25T00:26:12.659Z,92.52
2023-02-25T00:28:42.960Z,92.37
2023-02-25T00:31:16.464Z,91.87
2023-02-25T00:33:43.649Z,91.54
2023-02-25T00:36:13.750Z,91.53
2023-02-25T00:38:40.792Z,91.01
2023-02-25T00:41:11.854Z,91.21
2023-02-25T00:43:39.921Z,91.18
2023-02-25T00:46:06.463Z,91.20
2023-02-25T00:48:33.291Z,91.31
2023-02-25T00:51:08.919Z,90.88
2023-02-25T00:53:35.975Z,90.80
2023-02-25T00:56:02.535Z,90.67
2023-02-25T00:58:29.089Z,90.31
2023-02-25T01:00:56.387Z,89.89
2023-02-25T01:03:23.278Z,89.82
2023-02-25T01:05:50.222Z,89.65
2023-02-25T01:08:18.894Z,89.53
2023-02-25T01:10:46.777Z,89.86
2023-02-25T01:13:15.267Z,90.29
2023-02-25T01:15:41.960Z,90.66
2023-02-25T01:18:08.448Z,90.92
2023-02-25T01:20:38.535Z,90.96
2023-02-25T01:23:05.071Z,90.98
2023-02-25T01:25:31.667Z,91.27
2023-02-25T01:27:58.245Z,91.43
2023-02-25T01:30:25.233Z,91.40
2023-02-25T01:32:51.898Z,91.72
2023-02-25T01:35:18.677Z,92.06
2023-02-25T01:37:46.993Z,91.98
2023-02-25T01:40:18.411Z,91.94
2023-02-25T01:42:46.317Z,92.03
2023-02-25T01:45:19.225Z,91.97
2023-02-25T01:47:48.637Z,92.23
2023-02-25T01:50:15.353Z,92.38
2023-02-25T01:52:42.483Z,92.17
2023-02-25T01:55:10.627Z,92.32
2023-02-25T01:57:37.529Z,92.20
2023-02-25T02:00:17.226Z,92.09
2023-02-25T02:02:47.178Z,91.80
2023-02-25T02:05:15.211Z,91.77
2023-02-25T02:07:41.842Z,91.36
2023-02-25T02:10:09.096Z,91.34
2023-02-25T02:12:38.672Z,91.50
2023-02-25T02:15:09.326Z,91.42
2023-02-25T02:17:47.391Z,91.42
2023-02-25T02:20:20.589Z,91.38
2023-02-25T02:22:53.162Z,91.45
2023-02-25T02:25:25.810Z,91.62
2023-02-25T02:28:21.601Z,91.67
2023-02-25T02:31:16.077Z,92.07
2023-02-25T02:33:59.594Z,92.06
2023-02-25T02:36:48.295Z,92.15
2023-02-25T02:39:52.964Z,92.09
2023-02-25T02:42:51.265Z,92.36
2023-02-25T02:45:23.993Z,92.92
2023-02-25T02:47:58.051Z,92.72
2023-02-25T02:50:33.973Z,92.91
2023-02-25T02:53:08.099Z,93.09
2023-02-25T02:55:39.201Z,93.33
2023-02-25T02:58:13.201Z,93.43
2023-02-25T03:00:45.189Z,93.75
2023-02-25T03:03:18.291Z,93.77
2023-02-25T03:05:50.970Z,93.74
2023-02-25T03:08:25.763Z,93.96
2023-02-25T03:10:52.600Z,93.91
2023-02-25T03:13:19.155Z,94.08
2023-02-25T03:15:47.923Z,94.56
2023-02-25T03:18:24.095Z,94.27
2023-02-25T03:20:54.856Z,94.42
2023-02-25T03:23:27.420Z,94.34
2023-02-25T03:26:06.415Z,94.47
2023-02-25T03:28:34.591Z,94.35
2023-02-25T03:31:12.837Z,93.99
2023-02-25T03:33:51.181Z,94.33
2023-02-25T03:36:37.788Z,94.27
2023-02-25T03:39:15.504Z,94.00
2023-02-25T03:41:49.351Z,94.00
2023-02-25T03:44:21.101Z,93.74
2023-02-25T03:46:48.440Z,93.80
2023-02-25T03:49:21.257Z,93.57
2023-02-25T03:51:49.845Z,93.49
2023-02-25T03:54:16.750Z,93.05
2023-02-25T03:56:48.764Z,93.18
2023-02-25T03:59:15.887Z,92.97
2023-02-25T04:01:44.920Z,92.78
2023-02-25T04:04:11.466Z,92.60
2023-02-25T04:06:37.947Z,92.09
2023-02-25T04:09:05.669Z,91.62
2023-02-25T04:11:32.712Z,91.09
2023-02-25T04:13:59.150Z,91.09
2023-02-25T04:16:25.590Z,90.66
2023-02-25T04:18:52.131Z,90.36
2023-02-25T04:21:48.216Z,90.31
2023-02-25T04:24:14.670Z,90.22
2023-02-25T04:26:41.327Z,90.44
2023-02-25T04:29:07.854Z,90.48
2023-02-25T04:31:34.462Z,90.47
2023-02-25T04:34:01.057Z,90.15
2023-02-25T04:36:33.885Z,90.29
2023-02-25T04:39:03.703Z,90.43
2023-02-25T04:41:32.852Z,90.27
2023-02-25T04:43:59.879Z,90.26
2023-02-25T04:46:27.095Z,90.42
2023-02-25T04:48:53.692Z,89.91
2023-02-25T04:51:21.729Z,89.73
2023-02-25T04:53:48.629Z,89.86
2023-02-25T04:56:15.802Z,89.53
2023-02-25T04:58:42.558Z,89.45
2023-02-25T05:01:10.069Z,89.59
2023-02-25T05:03:36.790Z,89.43
2023-02-25T05:06:04.260Z,89.26
2023-02-25T05:08:31.907Z,89.30
2023-02-25T05:10:59.030Z,89.07
2023-02-25T05:13:26.917Z,89.09
2023-02-25T05:15:53.418Z,89.33
2023-02-25T05:18:19.930Z,89.60
2023-02-25T05:20:47.988Z,89.56
2023-02-25T05:23:14.712Z,89.80
2023-02-25T05:25:41.414Z,89.83
2023-02-25T05:28:09.794Z,89.78
2023-02-25T05:30:38.550Z,89.66
2023-02-25T05:33:06.772Z,89.48
2023-02-25T05:35:33.390Z,89.31
2023-02-25T05:38:00.123Z,89.54
2023-02-25T05:40:26.830Z,89.44
2023-02-25T05:42:53.298Z,89.54
2023-02-25T05:45:21.036Z,89.53
2023-02-25T05:47:47.673Z,89.54
2023-02-25T05:50:14.381Z,89.52
2023-02-25T05:52:40.922Z,89.24
2023-02-25T05:55:09.510Z,89.42
2023-02-25T05:57:36.427Z,89.37
2023-02-25T06:00:06.115Z,89.09
2023-02-25T06:02:33.680Z,89.01
2023-02-25T06:05:00.336Z,89.00
2023-02-25T06:07:30.586Z,88.75
2023-02-25T06:10:00.786Z,88.93
2023-02-25T06:12:32.904Z,88.59
2023-02-25T06:14:59.976Z,88.64
2023-02-25T06:17:26.666Z,88.61
2023-02-25T06:19:53.793Z,88.64
2023-02-25T06:22:22.824Z,88.53
2023-02-25T06:24:49.455Z,89.12
2023-02-25T06:27:16.243Z,88.87
2023-02-25T06:29:42.887Z,89.00
2023-02-25T06:32:10.936Z,89.09
2023-02-25T06:34:38.578Z,89.16
2023-02-25T06:37:05.520Z,89.17
2023-02-25T06:39:32.549Z,88.95
2023-02-25T06:41:59.410Z,88.92
2023-02-25T06:44:27.641Z,88.87
2023-02-25T06:46:57.123Z,88.59
2023-02-25T06:49:24.411Z,88.54
2023-02-25T06:51:51.061Z,88.53
2023-02-25T06:54:18.431Z,88.55
2023-02-25T06:56:45.033Z,88.61
2023-02-25T06:59:11.668Z,88.70
2023-02-25T07:01:38.325Z,88.92
2023-02-25T07:04:05.119Z,88.83
2023-02-25T07:06:31.840Z,88.90
2023-02-25T07:08:58.377Z,89.20
2023-02-25T07:11:25.017Z,90.26
2023-02-25T07:13:54.650Z,91.61
2023-02-25T07:16:21.441Z,92.30
2023-02-25T07:18:48.178Z,92.99
2023-02-25T07:21:15.915Z,93.42
2023-02-25T07:23:42.831Z,94.00
2023-02-25T07:26:12.109Z,94.18
2023-02-25T07:28:39.600Z,94.73
2023-02-25T07:31:12.157Z,95.12
2023-02-25T07:33:38.795Z,95.40
2023-02-25T07:36:05.583Z,95.74
2023-02-25T07:38:32.485Z,96.37
2023-02-25T07:41:05.094Z,96.28
2023-02-25T07:43:31.686Z,96.56
2023-02-25T07:45:58.517Z,96.69
2023-02-25T07:48:25.492Z,97.32
2023-02-25T07:50:52.188Z,97.02
2023-02-25T07:53:21.894Z,97.29
2023-02-25T07:55:49.732Z,97.32
2023-02-25T07:58:16.541Z,97.83
2023-02-25T08:00:45.673Z,98.07
2023-02-25T08:03:12.477Z,98.27
2023-02-25T08:05:39.106Z,98.43
2023-02-25T08:08:06.101Z,98.59
2023-02-25T08:10:32.783Z,98.52
2023-02-25T08:12:59.337Z,98.62
2023-02-25T08:15:26.014Z,98.63
2023-02-25T08:17:53.166Z,98.65
2023-02-25T08:20:19.760Z,98.66
2023-02-25T08:22:46.257Z,98.84
2023-02-25T08:25:12.724Z,98.65
2023-02-25T08:27:39.419Z,98.80
2023-02-25T08:30:09.382Z,99.13
2023-02-25T08:32:36.372Z,99.26
2023-02-25T08:35:03.626Z,99.12
2023-02-25T08:37:30.174Z,98.54
2023-02-25T08:39:56.890Z,98.82
2023-02-25T08:42:24.058Z,98.54
2023-02-25T08:44:50.653Z,98.47
2023-02-25T08:47:17.165Z,98.25
2023-02-25T08:49:43.754Z,97.84
2023-02-25T08:52:13.982Z,97.45
2023-02-25T08:54:41.332Z,96.86
2023-02-25T08:57:07.950Z,96.25
2023-02-25T08:59:35.962Z,96.05
2023-02-25T09:02:07.669Z,95.16
2023-02-25T09:04:34.649Z,95.01
2023-02-25T09:07:02.362Z,94.64
2023-02-25T09:09:29.710Z,93.87
2023-02-25T09:11:56.295Z,92.53
2023-02-25T09:14:22.885Z,92.00
2023-02-25T09:16:49.482Z,91.49
2023-02-25T09:19:17.997Z,90.50
2023-02-25T09:21:48.273Z,90.83
2023-02-25T09:24:16.160Z,90.41
2023-02-25T09:26:42.751Z,90.20
2023-02-25T09:29:09.320Z,90.73
2023-02-25T09:31:37.543Z,90.12
2023-02-25T09:34:06.584Z,89.83
2023-02-25T09:36:33.468Z,89.54
2023-02-25T09:39:00.281Z,89.24
2023-02-25T09:41:49.788Z,87.16
2023-02-25T09:44:41.455Z,86.87
2023-02-25T09:47:19.984Z,86.93
2023-02-25T09:50:00.602Z,86.55
2023-02-25T09:52:46.961Z,86.75
2023-02-25T09:55:31.142Z,86.66
2023-02-25T09:58:07.489Z,86.93
2023-02-25T10:00:48.602Z,87.05
2023-02-25T10:03:30.272Z,86.43
2023-02-25T10:06:11.896Z,85.85
2023-02-25T10:08:53.622Z,85.58
2023-02-25T10:11:36.317Z,85.07
2023-02-25T10:14:25.366Z,84.77
2023-02-25T10:16:57.984Z,83.48
2023-02-25T10:19:34.355Z,83.40
2023-02-25T10:22:19.138Z,82.67
2023-02-25T10:25:16.748Z,82.69
2023-02-25T10:28:11.478Z,80.85
2023-02-25T10:31:03.883Z,81.10
2023-02-25T10:33:34.980Z,81.40
2023-02-25T10:36:11.835Z,79.72
2023-02-25T10:38:42.137Z,79.67
2023-02-25T10:41:08.809Z,80.28
2023-02-25T10:43:35.584Z,80.88
2023-02-25T10:46:14.301Z,80.21
2023-02-25T10:48:44.118Z,79.69
2023-02-25T10:51:13.379Z,79.16
2023-02-25T10:53:42.217Z,78.95
2023-02-25T10:56:09.852Z,76.77
2023-02-25T10:58:44.337Z,75.71
2023-02-25T11:01:15.777Z,76.27
2023-02-25T11:04:00.821Z,75.39
2023-02-25T11:06:31.712Z,76.51
2023-02-25T11:09:00.484Z,77.97
2023-02-25T11:11:38.623Z,79.60
2023-02-25T11:14:05.343Z,80.83
2023-02-25T11:16:36.523Z,81.51
2023-02-25T11:19:28.248Z,82.56
2023-02-25T11:21:57.917Z,83.52
2023-02-25T11:24:33.468Z,84.48
2023-02-25T11:27:02.514Z,85.10
2023-02-25T11:29:42.657Z,85.04
2023-02-25T11:32:13.876Z,85.64
2023-02-25T11:35:00.009Z,84.65
2023-02-25T11:37:36.021Z,84.16
2023-02-25T11:40:19.194Z,83.59
2023-02-25T11:43:02.484Z,83.34
2023-02-25T11:45:35.553Z,82.48
2023-02-25T11:48:16.642Z,81.74
2023-02-25T11:50:46.268Z,78.90
2023-02-25T11:53:37.820Z,78.15
2023-02-25T11:56:28.771Z,76.98
2023-02-25T11:59:12.798Z,76.06
2023-02-25T12:02:00.320Z,74.42
2023-02-25T12:04:43.460Z,72.19
2023-02-25T12:08:12.451Z,71.72
2023-02-25T12:10:45.712Z,67.96
2023-02-25T12:13:21.033Z,66.78
2023-02-25T12:16:02.904Z,67.00
2023-02-25T12:18:57.364Z,68.38
2023-02-25T12:21:29.824Z,67.01
2023-02-25T12:24:34.513Z,67.91
2023-02-25T12:27:36.178Z,65.36
2023-02-25T12:30:08.966Z,66.38
2023-02-25T12:32:54.761Z,64.93
2023-02-25T12:35:38.565Z,64.75
2023-02-25T12:38:35.962Z,63.30
2023-02-25T12:41:21.611Z,62.15
2023-02-25T12:44:07.211Z,62.74
2023-02-25T12:46:52.427Z,63.39
2023-02-25T12:49:43.477Z,62.96
2023-02-25T12:52:18.801Z,60.87
2023-02-25T12:55:10.838Z,60.94
2023-02-25T12:57:52.882Z,61.16
2023-02-25T13:00:36.616Z,60.03
2023-02-25T13:03:39.050Z,59.21
2023-02-25T13:06:23.810Z,60.06
2023-02-25T13:09:07.350Z,59.29
2023-02-25T13:12:13.629Z,60.56
2023-02-25T13:15:04.153Z,60.03
2023-02-25T13:17:51.387Z,59.90
2023-02-25T13:20:47.382Z,59.90
2023-02-25T13:23:41.649Z,60.17
2023-02-25T13:26:34.140Z,60.40
2023-02-25T13:29:15.077Z,59.77
2023-02-25T13:32:03.317Z,58.96
2023-02-25T13:34:41.941Z,60.17
2023-02-25T13:37:44.065Z,60.71
2023-02-25T13:40:26.720Z,60.98
2023-02-25T13:43:05.727Z,59.61
2023-02-25T13:45:43.941Z,60.42
2023-02-25T13:48:31.858Z,59.46
2023-02-25T13:51:24.635Z,59.34
2023-02-25T13:54:33.307Z,58.89
2023-02-25T13:57:19.866Z,59.76
2023-02-25T14:00:09.407Z,59.42
2023-02-25T14:02:59.291Z,57.17
2023-02-25T14:05:58.725Z,56.62
2023-02-25T14:08:42.159Z,57.55
2023-02-25T14:11:38.716Z,58.47
2023-02-25T14:14:23.246Z,57.46
2023-02-25T14:17:16.948Z,56.13
2023-02-25T14:20:21.070Z,57.31
2023-02-25T14:23:12.021Z,56.66
2023-02-25T14:26:11.275Z,55.30
2023-02-25T14:29:14.878Z,57.42
2023-02-25T14:32:09.412Z,58.30
2023-02-25T14:35:09.936Z,58.96
2023-02-25T14:38:07.420Z,56.57
2023-02-25T14:40:48.055Z,56.50
2023-02-25T14:43:46.375Z,56.48
2023-02-25T14:46:27.611Z,57.10
2023-02-25T14:49:07.767Z,56.20
2023-02-25T14:52:12.046Z,56.66
2023-02-25T14:55:02.632Z,55.98
2023-02-25T14:57:46.804Z,56.76
2023-02-25T15:00:27.142Z,56.80
2023-02-25T15:03:12.298Z,56.56
2023-02-25T15:06:00.348Z,56.11
2023-02-25T15:08:47.966Z,56.15
2023-02-25T15:11:24.404Z,55.62
2023-02-25T15:14:32.098Z,55.68
2023-02-25T15:17:31.464Z,56.01
2023-02-25T15:23:20.716Z,56.17
2023-02-25T15:25:50.597Z,56.13
2023-02-25T15:28:28.949Z,56.07
2023-02-25T15:31:01.296Z,55.58
2023-02-25T15:33:36.989Z,56.10
2023-02-25T15:36:15.680Z,56.77
2023-02-25T15:38:50.588Z,57.87
2023-02-25T15:41:28.913Z,57.92
2023-02-25T15:44:02.660Z,57.05
2023-02-25T15:46:38.828Z,56.48
2023-02-25T15:49:08.179Z,56.07
2023-02-25T15:51:45.567Z,55.35
2023-02-25T15:54:32.322Z,56.11
2023-02-25T15:57:04.900Z,56.04
2023-02-25T15:59:40.988Z,56.36
2023-02-25T16:02:30.504Z,56.88
2023-02-25T16:04:58.200Z,57.94
2023-02-25T16:07:32.399Z,58.08
2023-02-25T16:10:05.670Z,58.34
2023-02-25T16:12:32.513Z,59.02
2023-02-25T16:14:59.908Z,58.49
2023-02-25T16:17:34.468Z,58.48
2023-02-25T16:20:33.718Z,59.07
2023-02-25T16:23:00.912Z,59.90
2023-02-25T16:25:42.400Z,59.42
2023-02-25T16:28:25.195Z,59.52
2023-02-25T16:31:14.257Z,59.29
2023-02-25T16:34:01.608Z,59.41
2023-02-25T16:36:39.056Z,59.75
2023-02-25T16:39:11.632Z,59.84
2023-02-25T16:41:39.465Z,60.38
2023-02-25T16:44:07.757Z,60.00
2023-02-25T16:46:37.654Z,59.68
2023-02-25T16:49:10.077Z,59.62
2023-02-25T16:51:43.189Z,60.28
2023-02-25T16:54:31.479Z,59.96
2023-02-25T16:57:03.140Z,60.51
2023-02-25T16:59:38.495Z,60.88
2023-02-25T17:02:17.087Z,60.97
2023-02-25T17:04:54.419Z,61.50
2023-02-25T17:07:25.446Z,61.82
2023-02-25T17:10:00.748Z,61.69
2023-02-25T17:12:36.157Z,61.90
2023-02-25T17:15:09.577Z,62.16
2023-02-25T17:17:39.877Z,62.34
2023-02-25T17:20:14.606Z,62.67
2023-02-25T17:22:41.790Z,62.68
2023-02-25T17:25:15.975Z,62.85
2023-02-25T17:27:44.392Z,63.20
2023-02-25T17:30:48.204Z,63.45
2023-02-25T17:33:19.245Z,63.58
2023-02-25T17:35:48.087Z,63.58
2023-02-25T17:38:21.786Z,63.77
2023-02-25T17:40:49.422Z,64.37
2023-02-25T17:43:17.840Z,64.45
2023-02-25T17:45:50.064Z,64.75
2023-02-25T17:48:21.743Z,64.92
2023-02-25T17:51:13.636Z,64.96
2023-02-25T17:53:54.665Z,65.79
2023-02-25T17:56:24.571Z,65.63
2023-02-25T17:58:53.180Z,65.55
2023-02-25T18:01:30.766Z,65.93
2023-02-25T18:03:59.916Z,66.05
2023-02-25T18:06:27.993Z,66.00
2023-02-25T18:08:55.801Z,66.47
2023-02-25T18:11:38.041Z,66.97
2023-02-25T18:14:30.776Z,67.01
2023-02-25T18:16:57.977Z,67.23
2023-02-25T18:19:35.377Z,67.28
2023-02-25T18:22:02.444Z,67.43
2023-02-25T18:24:33.406Z,67.61
2023-02-25T18:27:26.870Z,67.64
2023-02-25T18:29:56.355Z,68.00
2023-02-25T18:32:22.877Z,68.26
2023-02-25T18:34:49.742Z,68.85
2023-02-25T18:37:19.992Z,69.00
2023-02-25T18:39:47.598Z,68.67
2023-02-25T18:42:16.120Z,69.12
2023-02-25T18:44:44.641Z,69.43
2023-02-25T18:47:11.158Z,69.58
2023-02-25T18:49:37.812Z,69.75
2023-02-25T18:52:11.328Z,69.87
2023-02-25T18:54:37.892Z,69.91
2023-02-25T18:57:18.028Z,70.54
2023-02-25T18:59:44.628Z,70.07
2023-02-25T19:02:25.903Z,71.23
2023-02-25T19:04:53.266Z,70.84
2023-02-25T19:07:19.846Z,71.29
2023-02-25T19:09:46.380Z,71.88
2023-02-25T19:12:14.029Z,71.97
2023-02-25T19:14:42.151Z,72.00
2023-02-25T19:17:15.801Z,72.57
2023-02-25T19:19:46.492Z,72.54
2023-02-25T19:22:15.569Z,72.94
2023-02-25T19:24:48.230Z,73.26
2023-02-25T19:27:21.328Z,73.72
2023-02-25T19:29:49.896Z,73.73
2023-02-25T19:32:17.683Z,74.12
2023-02-25T19:34:45.190Z,74.17
2023-02-25T19:37:12.872Z,74.21
2023-02-25T19:39:40.037Z,74.28
2023-02-25T19:42:06.893Z,73.91
2023-02-25T19:44:33.544Z,74.25
2023-02-25T19:47:00.187Z,74.29
2023-02-25T19:49:27.616Z,74.13
2023-02-25T19:51:54.746Z,74.11
2023-02-25T19:54:23.386Z,73.86
2023-02-25T19:56:51.628Z,74.20
2023-02-25T19:59:18.180Z,73.84
2023-02-25T20:01:44.829Z,73.87
2023-02-25T20:04:11.470Z,73.82
2023-02-25T20:06:38.359Z,73.78
2023-02-25T20:09:07.191Z,73.85
2023-02-25T20:11:34.166Z,74.07
2023-02-25T20:14:01.832Z,73.74
2023-02-25T20:16:28.362Z,74.22
2023-02-25T20:18:57.505Z,74.61
2023-02-25T20:21:25.466Z,74.42
2023-02-25T20:23:53.192Z,74.78
2023-02-25T20:26:23.074Z,74.99
2023-02-25T20:28:53.023Z,74.93
2023-02-25T20:31:20.912Z,75.20
2023-02-25T20:33:56.093Z,75.49
2023-02-25T20:36:28.582Z,75.74
2023-02-25T20:41:46.786Z,75.83
2023-02-25T20:44:14.196Z,76.04
2023-02-25T20:46:41.398Z,75.79
2023-02-25T20:49:12.022Z,75.91
2023-02-25T20:51:38.770Z,76.31
2023-02-25T20:54:05.453Z,76.54
2023-02-25T20:56:34.691Z,76.68
2023-02-25T20:59:01.251Z,76.75
2023-02-25T21:01:28.458Z,76.93
2023-02-25T21:03:55.647Z,77.31
2023-02-25T21:06:26.971Z,77.33
2023-02-25T21:08:54.798Z,77.79
2023-02-25T21:11:24.128Z,77.86
2023-02-25T21:13:51.818Z,78.28
2023-02-25T21:16:19.229Z,78.19
2023-02-25T21:18:46.216Z,78.64
2023-02-25T21:21:14.806Z,78.67
2023-02-25T21:23:42.893Z,79.02
2023-02-25T21:26:11.470Z,79.13
2023-02-25T21:28:39.033Z,79.50
2023-02-25T21:31:09.134Z,79.70
2023-02-25T21:33:37.253Z,79.59
2023-02-25T21:36:04.362Z,80.06
2023-02-25T21:38:31.060Z,79.99
2023-02-25T21:41:03.428Z,80.24
2023-02-25T21:43:29.892Z,80.11
2023-02-25T21:45:58.620Z,80.36
2023-02-25T21:48:26.860Z,80.53
2023-02-25T21:50:54.815Z,80.33
2023-02-25T21:53:21.871Z,80.87
2023-02-25T21:55:48.398Z,80.79
2023-02-25T21:58:15.447Z,80.56
2023-02-25T22:00:42.560Z,81.03
2023-02-25T22:03:11.877Z,80.65
2023-02-25T22:05:39.069Z,80.67
2023-02-25T22:08:06.616Z,80.87
2023-02-25T22:10:36.645Z,81.41
2023-02-25T22:13:03.173Z,80.96
2023-02-25T22:15:29.919Z,80.83
2023-02-25T22:17:56.453Z,81.21
2023-02-25T22:20:23.100Z,81.18
2023-02-25T22:22:49.580Z,81.66
2023-02-25T22:25:16.301Z,81.67
2023-02-25T22:27:42.753Z,81.81
2023-02-25T22:30:09.889Z,82.10
2023-02-25T22:32:37.294Z,81.65
2023-02-25T22:35:04.597Z,81.73
2023-02-25T22:37:34.075Z,81.95
2023-02-25T22:40:00.625Z,81.99
2023-02-25T22:42:27.251Z,81.94
2023-02-25T22:44:53.707Z,82.04
2023-02-25T22:47:20.601Z,82.20
2023-02-25T22:49:47.030Z,82.55
2023-02-25T22:52:13.641Z,82.49
2023-02-25T22:54:40.230Z,82.47
2023-02-25T22:57:06.695Z,82.03
2023-02-25T22:59:33.221Z,82.07
2023-02-25T23:01:59.751Z,82.17
2023-02-25T23:04:27.302Z,81.98
2023-02-25T23:06:55.752Z,81.83
2023-02-25T23:09:22.414Z,81.90
2023-02-25T23:11:48.908Z,81.76
2023-02-25T23:14:15.456Z,82.41
2023-02-25T23:16:45.885Z,82.38
2023-02-25T23:19:16.115Z,82.34
2023-02-25T23:21:43.339Z,82.54
2023-02-25T23:24:16.049Z,82.35
2023-02-25T23:26:44.070Z,81.91
2023-02-25T23:29:11.911Z,82.46
2023-02-25T23:31:43.784Z,82.32
2023-02-25T23:34:13.394Z,82.36
2023-02-25T23:36:42.553Z,82.40
2023-02-25T23:39:10.212Z,82.05
2023-02-25T23:41:37.666Z,81.85
2023-02-25T23:44:05.172Z,81.20
2023-02-25T23:46:32.301Z,81.12
2023-02-25T23:49:01.469Z,80.97
2023-02-25T23:51:29.451Z,80.37
2023-02-25T23:53:58.841Z,79.96
2023-02-25T23:56:27.236Z,79.96
2023-02-25T23:58:54.829Z,79.54
